sensor_id;sensor_type;location;lat;lon;timestamp;P1;durP1;ratioP1;P2;durP2;ratioP2
2710;SDS011;20721;47.402;8.550;2023-05-07T00:00:38;3.04;;;3.04;;
2710;SDS011;20721;47.402;8.550;2023-05-07T00:01:38;2.79;;;2.79;;
2710;SDS011;20721;47.402;8.550;2023-05-07T00:02:38;2.83;;;2.83;;
2710;SDS011;20721;47.402;8.550;2023-05-07T00:03:38;3.34;;;3.34;;
2710;SDS011;20721;47.402;8.550;2023-05-07T00:04:38;3.10;;;3.10;;
2710;SDS011;20721;47.402;8.550;2023-05-07T00:05:38;3.03;;;3.03;;
2710;SDS011;20721;47.402;8.550;2023-05-07T00:06:39;2.99;;;2.99;;
2710;SDS011;20721;47.402;8.550;2023-05-07T00:07:38;3.21;;;3.21;;
2710;SDS011;20721;47.402;8.550;2023-05-07T00:08:38;3.04;;;3.04;;
2710;SDS011;20721;47.402;8.550;2023-05-07T00:09:38;3.07;;;3.07;;
2710;SDS011;20721;47.402;8.550;2023-05-07T00:10:38;2.70;;;2.70;;
2710;SDS011;20721;47.402;8.550;2023-05-07T00:11:38;3.45;;;3.45;;
2710;SDS011;20721;47.402;8.550;2023-05-07T00:12:40;3.39;;;3.39;;
2710;SDS011;20721;47.402;8.550;2023-05-07T00:13:40;3.11;;;3.11;;
2710;SDS011;20721;47.402;8.550;2023-05-07T00:14:38;3.09;;;3.09;;
2710;SDS011;20721;47.402;8.550;2023-05-07T00:15:38;2.82;;;2.82;;
2710;SDS011;20721;47.402;8.550;2023-05-07T00:16:38;2.80;;;2.80;;
2710;SDS011;20721;47.402;8.550;2023-05-07T00:17:39;2.78;;;2.78;;
2710;SDS011;20721;47.402;8.550;2023-05-07T00:18:38;3.04;;;3.04;;
2710;SDS011;20721;47.402;8.550;2023-05-07T00:19:38;2.57;;;2.57;;
2710;SDS011;20721;47.402;8.550;2023-05-07T00:20:41;2.84;;;2.84;;
2710;SDS011;20721;47.402;8.550;2023-05-07T00:21:38;2.58;;;2.58;;
2710;SDS011;20721;47.402;8.550;2023-05-07T00:22:40;3.58;;;3.58;;
2710;SDS011;20721;47.402;8.550;2023-05-07T00:23:38;3.06;;;3.06;;
2710;SDS011;20721;47.402;8.550;2023-05-07T00:24:38;2.63;;;2.63;;
2710;SDS011;20721;47.402;8.550;2023-05-07T00:25:38;3.27;;;3.27;;
2710;SDS011;20721;47.402;8.550;2023-05-07T00:26:41;3.40;;;3.40;;
2710;SDS011;20721;47.402;8.550;2023-05-07T00:27:38;3.41;;;3.41;;
2710;SDS011;20721;47.402;8.550;2023-05-07T00:28:38;3.51;;;3.51;;
2710;SDS011;20721;47.402;8.550;2023-05-07T00:29:38;3.77;;;3.77;;
2710;SDS011;20721;47.402;8.550;2023-05-07T00:30:38;3.25;;;3.25;;
2710;SDS011;20721;47.402;8.550;2023-05-07T00:31:38;3.67;;;3.67;;
2710;SDS011;20721;47.402;8.550;2023-05-07T00:32:38;3.23;;;3.23;;
2710;SDS011;20721;47.402;8.550;2023-05-07T00:33:38;3.25;;;3.25;;
2710;SDS011;20721;47.402;8.550;2023-05-07T00:34:38;3.96;;;3.96;;
2710;SDS011;20721;47.402;8.550;2023-05-07T00:35:38;3.32;;;3.32;;
2710;SDS011;20721;47.402;8.550;2023-05-07T00:36:39;3.86;;;3.86;;
2710;SDS011;20721;47.402;8.550;2023-05-07T00:37:38;3.56;;;3.56;;
2710;SDS011;20721;47.402;8.550;2023-05-07T00:38:38;3.63;;;3.63;;
2710;SDS011;20721;47.402;8.550;2023-05-07T00:39:38;3.18;;;3.18;;
2710;SDS011;20721;47.402;8.550;2023-05-07T00:40:38;4.23;;;4.23;;
2710;SDS011;20721;47.402;8.550;2023-05-07T00:41:38;3.74;;;3.74;;
2710;SDS011;20721;47.402;8.550;2023-05-07T00:42:39;3.34;;;3.34;;
2710;SDS011;20721;47.402;8.550;2023-05-07T00:43:38;3.70;;;3.70;;
2710;SDS011;20721;47.402;8.550;2023-05-07T00:44:38;3.21;;;3.21;;
2710;SDS011;20721;47.402;8.550;2023-05-07T00:45:39;3.57;;;3.57;;
2710;SDS011;20721;47.402;8.550;2023-05-07T00:46:38;3.87;;;3.87;;
2710;SDS011;20721;47.402;8.550;2023-05-07T00:47:38;3.78;;;3.78;;
2710;SDS011;20721;47.402;8.550;2023-05-07T00:48:38;3.49;;;3.49;;
2710;SDS011;20721;47.402;8.550;2023-05-07T00:49:45;3.38;;;3.38;;
2710;SDS011;20721;47.402;8.550;2023-05-07T00:51:38;2.95;;;2.95;;
2710;SDS011;20721;47.402;8.550;2023-05-07T00:52:38;3.64;;;3.64;;
2710;SDS011;20721;47.402;8.550;2023-05-07T00:53:38;3.49;;;3.49;;
2710;SDS011;20721;47.402;8.550;2023-05-07T00:54:38;3.41;;;3.41;;
2710;SDS011;20721;47.402;8.550;2023-05-07T00:55:38;3.19;;;3.19;;
2710;SDS011;20721;47.402;8.550;2023-05-07T00:57:45;3.17;;;3.17;;
2710;SDS011;20721;47.402;8.550;2023-05-07T00:59:38;3.50;;;3.50;;
2710;SDS011;20721;47.402;8.550;2023-05-07T01:00:38;3.56;;;3.56;;
2710;SDS011;20721;47.402;8.550;2023-05-07T01:02:38;3.67;;;3.67;;
2710;SDS011;20721;47.402;8.550;2023-05-07T01:03:41;3.75;;;3.75;;
2710;SDS011;20721;47.402;8.550;2023-05-07T01:04:38;3.87;;;3.87;;
2710;SDS011;20721;47.402;8.550;2023-05-07T01:05:39;3.36;;;3.36;;
2710;SDS011;20721;47.402;8.550;2023-05-07T01:06:39;3.76;;;3.76;;
2710;SDS011;20721;47.402;8.550;2023-05-07T01:07:38;3.46;;;3.46;;
2710;SDS011;20721;47.402;8.550;2023-05-07T01:08:40;3.43;;;3.43;;
2710;SDS011;20721;47.402;8.550;2023-05-07T01:09:38;3.85;;;3.85;;
2710;SDS011;20721;47.402;8.550;2023-05-07T01:10:40;3.44;;;3.44;;
2710;SDS011;20721;47.402;8.550;2023-05-07T01:11:38;3.39;;;3.39;;
2710;SDS011;20721;47.402;8.550;2023-05-07T01:12:38;3.87;;;3.87;;
2710;SDS011;20721;47.402;8.550;2023-05-07T01:13:38;3.56;;;3.56;;
2710;SDS011;20721;47.402;8.550;2023-05-07T01:14:38;3.61;;;3.61;;
2710;SDS011;20721;47.402;8.550;2023-05-07T01:15:38;3.57;;;3.57;;
2710;SDS011;20721;47.402;8.550;2023-05-07T01:16:38;3.06;;;3.06;;
2710;SDS011;20721;47.402;8.550;2023-05-07T01:17:39;3.95;;;3.95;;
2710;SDS011;20721;47.402;8.550;2023-05-07T01:18:39;3.45;;;3.45;;
2710;SDS011;20721;47.402;8.550;2023-05-07T01:19:38;3.13;;;3.13;;
2710;SDS011;20721;47.402;8.550;2023-05-07T01:20:38;3.46;;;3.46;;
2710;SDS011;20721;47.402;8.550;2023-05-07T01:23:39;3.88;;;3.88;;
2710;SDS011;20721;47.402;8.550;2023-05-07T01:25:38;3.20;;;3.20;;
2710;SDS011;20721;47.402;8.550;2023-05-07T01:26:38;3.63;;;3.63;;
2710;SDS011;20721;47.402;8.550;2023-05-07T01:27:38;3.49;;;3.49;;
2710;SDS011;20721;47.402;8.550;2023-05-07T01:28:38;3.83;;;3.83;;
2710;SDS011;20721;47.402;8.550;2023-05-07T01:29:38;3.69;;;3.69;;
2710;SDS011;20721;47.402;8.550;2023-05-07T01:30:38;3.37;;;3.37;;
2710;SDS011;20721;47.402;8.550;2023-05-07T01:31:38;3.42;;;3.42;;
2710;SDS011;20721;47.402;8.550;2023-05-07T01:32:58;3.68;;;3.68;;
2710;SDS011;20721;47.402;8.550;2023-05-07T01:33:40;4.17;;;4.17;;
2710;SDS011;20721;47.402;8.550;2023-05-07T01:34:42;3.79;;;3.79;;
2710;SDS011;20721;47.402;8.550;2023-05-07T01:35:40;4.07;;;4.07;;
2710;SDS011;20721;47.402;8.550;2023-05-07T01:36:39;4.01;;;4.01;;
2710;SDS011;20721;47.402;8.550;2023-05-07T01:37:39;3.66;;;3.66;;
2710;SDS011;20721;47.402;8.550;2023-05-07T01:38:38;3.73;;;3.73;;
2710;SDS011;20721;47.402;8.550;2023-05-07T01:39:39;3.96;;;3.96;;
2710;SDS011;20721;47.402;8.550;2023-05-07T01:40:41;2.91;;;2.91;;
2710;SDS011;20721;47.402;8.550;2023-05-07T01:41:38;3.70;;;3.70;;
2710;SDS011;20721;47.402;8.550;2023-05-07T01:42:39;3.77;;;3.77;;
2710;SDS011;20721;47.402;8.550;2023-05-07T01:43:39;3.96;;;3.96;;
2710;SDS011;20721;47.402;8.550;2023-05-07T01:44:38;3.24;;;3.24;;
2710;SDS011;20721;47.402;8.550;2023-05-07T01:45:40;4.03;;;4.03;;
2710;SDS011;20721;47.402;8.550;2023-05-07T01:46:39;3.66;;;3.66;;
2710;SDS011;20721;47.402;8.550;2023-05-07T01:47:38;3.52;;;3.52;;
2710;SDS011;20721;47.402;8.550;2023-05-07T01:48:38;3.91;;;3.91;;
2710;SDS011;20721;47.402;8.550;2023-05-07T01:49:38;3.57;;;3.57;;
2710;SDS011;20721;47.402;8.550;2023-05-07T01:50:38;3.64;;;3.64;;
2710;SDS011;20721;47.402;8.550;2023-05-07T01:51:38;3.41;;;3.41;;
2710;SDS011;20721;47.402;8.550;2023-05-07T01:52:38;3.34;;;3.34;;
2710;SDS011;20721;47.402;8.550;2023-05-07T01:53:38;3.62;;;3.62;;
2710;SDS011;20721;47.402;8.550;2023-05-07T01:54:38;3.18;;;3.18;;
2710;SDS011;20721;47.402;8.550;2023-05-07T01:55:38;3.53;;;3.53;;
2710;SDS011;20721;47.402;8.550;2023-05-07T01:56:38;3.47;;;3.47;;
2710;SDS011;20721;47.402;8.550;2023-05-07T01:57:38;3.78;;;3.78;;
2710;SDS011;20721;47.402;8.550;2023-05-07T01:58:38;3.57;;;3.57;;
2710;SDS011;20721;47.402;8.550;2023-05-07T01:59:38;3.13;;;3.13;;
2710;SDS011;20721;47.402;8.550;2023-05-07T02:00:39;3.61;;;3.61;;
2710;SDS011;20721;47.402;8.550;2023-05-07T02:01:38;3.57;;;3.57;;
2710;SDS011;20721;47.402;8.550;2023-05-07T02:02:38;3.43;;;3.43;;
2710;SDS011;20721;47.402;8.550;2023-05-07T02:03:38;3.52;;;3.52;;
2710;SDS011;20721;47.402;8.550;2023-05-07T02:04:38;3.51;;;3.51;;
2710;SDS011;20721;47.402;8.550;2023-05-07T02:05:38;2.80;;;2.80;;
2710;SDS011;20721;47.402;8.550;2023-05-07T02:07:38;2.63;;;2.63;;
2710;SDS011;20721;47.402;8.550;2023-05-07T02:08:38;2.76;;;2.76;;
2710;SDS011;20721;47.402;8.550;2023-05-07T02:09:38;2.58;;;2.58;;
2710;SDS011;20721;47.402;8.550;2023-05-07T02:10:38;2.92;;;2.92;;
2710;SDS011;20721;47.402;8.550;2023-05-07T02:11:41;2.87;;;2.87;;
2710;SDS011;20721;47.402;8.550;2023-05-07T02:12:38;2.20;;;2.20;;
2710;SDS011;20721;47.402;8.550;2023-05-07T02:13:39;2.64;;;2.64;;
2710;SDS011;20721;47.402;8.550;2023-05-07T02:14:38;2.49;;;2.49;;
2710;SDS011;20721;47.402;8.550;2023-05-07T02:15:38;2.31;;;2.31;;
2710;SDS011;20721;47.402;8.550;2023-05-07T02:16:38;2.54;;;2.54;;
2710;SDS011;20721;47.402;8.550;2023-05-07T02:17:57;2.48;;;2.48;;
2710;SDS011;20721;47.402;8.550;2023-05-07T02:18:38;2.57;;;2.57;;
2710;SDS011;20721;47.402;8.550;2023-05-07T02:19:38;2.67;;;2.67;;
2710;SDS011;20721;47.402;8.550;2023-05-07T02:20:38;2.48;;;2.48;;
2710;SDS011;20721;47.402;8.550;2023-05-07T02:21:41;2.72;;;2.72;;
2710;SDS011;20721;47.402;8.550;2023-05-07T02:22:38;2.47;;;2.47;;
2710;SDS011;20721;47.402;8.550;2023-05-07T02:23:38;2.41;;;2.41;;
2710;SDS011;20721;47.402;8.550;2023-05-07T02:24:38;2.34;;;2.34;;
2710;SDS011;20721;47.402;8.550;2023-05-07T02:26:39;2.44;;;2.44;;
2710;SDS011;20721;47.402;8.550;2023-05-07T02:27:38;2.60;;;2.60;;
2710;SDS011;20721;47.402;8.550;2023-05-07T02:28:38;2.65;;;2.65;;
2710;SDS011;20721;47.402;8.550;2023-05-07T02:29:38;2.58;;;2.58;;
2710;SDS011;20721;47.402;8.550;2023-05-07T02:30:38;3.25;;;3.25;;
2710;SDS011;20721;47.402;8.550;2023-05-07T02:31:38;3.60;;;3.60;;
2710;SDS011;20721;47.402;8.550;2023-05-07T02:32:38;2.74;;;2.74;;
2710;SDS011;20721;47.402;8.550;2023-05-07T02:33:38;3.12;;;3.12;;
2710;SDS011;20721;47.402;8.550;2023-05-07T02:34:38;2.55;;;2.55;;
2710;SDS011;20721;47.402;8.550;2023-05-07T02:35:38;3.38;;;3.38;;
2710;SDS011;20721;47.402;8.550;2023-05-07T02:36:38;3.16;;;3.16;;
2710;SDS011;20721;47.402;8.550;2023-05-07T02:37:38;3.51;;;3.51;;
2710;SDS011;20721;47.402;8.550;2023-05-07T02:38:38;3.36;;;3.36;;
2710;SDS011;20721;47.402;8.550;2023-05-07T02:39:38;3.34;;;3.34;;
2710;SDS011;20721;47.402;8.550;2023-05-07T02:40:38;3.52;;;3.52;;
2710;SDS011;20721;47.402;8.550;2023-05-07T02:42:38;3.21;;;3.21;;
2710;SDS011;20721;47.402;8.550;2023-05-07T02:43:38;3.26;;;3.26;;
2710;SDS011;20721;47.402;8.550;2023-05-07T02:44:41;3.16;;;3.16;;
2710;SDS011;20721;47.402;8.550;2023-05-07T02:45:38;3.07;;;3.07;;
2710;SDS011;20721;47.402;8.550;2023-05-07T02:46:38;2.59;;;2.59;;
2710;SDS011;20721;47.402;8.550;2023-05-07T02:47:38;3.18;;;3.18;;
2710;SDS011;20721;47.402;8.550;2023-05-07T02:48:42;3.47;;;3.47;;
2710;SDS011;20721;47.402;8.550;2023-05-07T02:50:38;3.10;;;3.10;;
2710;SDS011;20721;47.402;8.550;2023-05-07T02:51:39;3.04;;;3.04;;
2710;SDS011;20721;47.402;8.550;2023-05-07T02:52:38;3.06;;;3.06;;
2710;SDS011;20721;47.402;8.550;2023-05-07T02:54:41;3.36;;;3.36;;
2710;SDS011;20721;47.402;8.550;2023-05-07T02:55:38;3.08;;;3.08;;
2710;SDS011;20721;47.402;8.550;2023-05-07T02:56:38;3.46;;;3.46;;
2710;SDS011;20721;47.402;8.550;2023-05-07T02:57:38;2.86;;;2.86;;
2710;SDS011;20721;47.402;8.550;2023-05-07T02:58:38;2.92;;;2.92;;
2710;SDS011;20721;47.402;8.550;2023-05-07T02:59:38;2.84;;;2.84;;
2710;SDS011;20721;47.402;8.550;2023-05-07T03:00:38;2.88;;;2.88;;
2710;SDS011;20721;47.402;8.550;2023-05-07T03:02:38;2.76;;;2.76;;
2710;SDS011;20721;47.402;8.550;2023-05-07T03:03:38;3.12;;;3.12;;
2710;SDS011;20721;47.402;8.550;2023-05-07T03:04:39;2.60;;;2.60;;
2710;SDS011;20721;47.402;8.550;2023-05-07T03:05:38;2.80;;;2.80;;
2710;SDS011;20721;47.402;8.550;2023-05-07T03:06:38;3.37;;;3.37;;
2710;SDS011;20721;47.402;8.550;2023-05-07T03:07:38;2.59;;;2.59;;
2710;SDS011;20721;47.402;8.550;2023-05-07T03:08:38;3.28;;;3.28;;
2710;SDS011;20721;47.402;8.550;2023-05-07T03:09:38;3.16;;;3.16;;
2710;SDS011;20721;47.402;8.550;2023-05-07T03:10:38;3.23;;;3.23;;
2710;SDS011;20721;47.402;8.550;2023-05-07T03:12:39;2.89;;;2.89;;
2710;SDS011;20721;47.402;8.550;2023-05-07T03:13:38;3.21;;;3.21;;
2710;SDS011;20721;47.402;8.550;2023-05-07T03:14:38;3.10;;;3.10;;
2710;SDS011;20721;47.402;8.550;2023-05-07T03:15:38;3.53;;;3.53;;
2710;SDS011;20721;47.402;8.550;2023-05-07T03:16:38;3.08;;;3.08;;
2710;SDS011;20721;47.402;8.550;2023-05-07T03:18:38;3.38;;;3.38;;
2710;SDS011;20721;47.402;8.550;2023-05-07T03:19:40;3.06;;;3.06;;
2710;SDS011;20721;47.402;8.550;2023-05-07T03:20:38;3.05;;;3.05;;
2710;SDS011;20721;47.402;8.550;2023-05-07T03:21:38;2.79;;;2.79;;
2710;SDS011;20721;47.402;8.550;2023-05-07T03:22:38;2.99;;;2.99;;
2710;SDS011;20721;47.402;8.550;2023-05-07T03:23:38;3.33;;;3.33;;
2710;SDS011;20721;47.402;8.550;2023-05-07T03:24:38;3.00;;;3.00;;
2710;SDS011;20721;47.402;8.550;2023-05-07T03:25:42;2.55;;;2.55;;
2710;SDS011;20721;47.402;8.550;2023-05-07T03:26:38;3.03;;;3.03;;
2710;SDS011;20721;47.402;8.550;2023-05-07T03:27:38;2.75;;;2.75;;
2710;SDS011;20721;47.402;8.550;2023-05-07T03:28:38;2.72;;;2.72;;
2710;SDS011;20721;47.402;8.550;2023-05-07T03:29:38;3.26;;;3.26;;
2710;SDS011;20721;47.402;8.550;2023-05-07T03:30:38;2.61;;;2.61;;
2710;SDS011;20721;47.402;8.550;2023-05-07T03:31:41;2.83;;;2.83;;
2710;SDS011;20721;47.402;8.550;2023-05-07T03:32:38;3.27;;;3.27;;
2710;SDS011;20721;47.402;8.550;2023-05-07T03:33:42;3.29;;;3.29;;
2710;SDS011;20721;47.402;8.550;2023-05-07T03:34:38;3.17;;;3.17;;
2710;SDS011;20721;47.402;8.550;2023-05-07T03:35:38;3.19;;;3.19;;
2710;SDS011;20721;47.402;8.550;2023-05-07T03:36:38;3.00;;;3.00;;
2710;SDS011;20721;47.402;8.550;2023-05-07T03:37:38;2.55;;;2.55;;
2710;SDS011;20721;47.402;8.550;2023-05-07T03:38:38;2.47;;;2.47;;
2710;SDS011;20721;47.402;8.550;2023-05-07T03:39:38;2.48;;;2.48;;
2710;SDS011;20721;47.402;8.550;2023-05-07T03:40:38;2.46;;;2.46;;
2710;SDS011;20721;47.402;8.550;2023-05-07T03:41:39;2.67;;;2.67;;
2710;SDS011;20721;47.402;8.550;2023-05-07T03:42:38;2.26;;;2.26;;
2710;SDS011;20721;47.402;8.550;2023-05-07T03:43:38;2.09;;;2.09;;
2710;SDS011;20721;47.402;8.550;2023-05-07T03:44:38;2.61;;;2.61;;
2710;SDS011;20721;47.402;8.550;2023-05-07T03:45:38;2.41;;;2.41;;
2710;SDS011;20721;47.402;8.550;2023-05-07T03:46:38;2.29;;;2.29;;
2710;SDS011;20721;47.402;8.550;2023-05-07T03:47:38;2.26;;;2.26;;
2710;SDS011;20721;47.402;8.550;2023-05-07T03:48:38;2.63;;;2.63;;
2710;SDS011;20721;47.402;8.550;2023-05-07T03:49:38;2.93;;;2.93;;
2710;SDS011;20721;47.402;8.550;2023-05-07T03:50:38;1.99;;;1.99;;
2710;SDS011;20721;47.402;8.550;2023-05-07T03:51:38;2.70;;;2.70;;
2710;SDS011;20721;47.402;8.550;2023-05-07T03:52:38;2.60;;;2.60;;
2710;SDS011;20721;47.402;8.550;2023-05-07T03:53:38;2.79;;;2.79;;
2710;SDS011;20721;47.402;8.550;2023-05-07T03:54:38;3.32;;;3.32;;
2710;SDS011;20721;47.402;8.550;2023-05-07T03:55:39;3.01;;;3.01;;
2710;SDS011;20721;47.402;8.550;2023-05-07T03:56:38;2.82;;;2.82;;
2710;SDS011;20721;47.402;8.550;2023-05-07T03:57:38;2.85;;;2.85;;
2710;SDS011;20721;47.402;8.550;2023-05-07T03:59:38;3.32;;;3.32;;
2710;SDS011;20721;47.402;8.550;2023-05-07T04:02:42;3.31;;;3.31;;
2710;SDS011;20721;47.402;8.550;2023-05-07T04:03:38;3.43;;;3.43;;
2710;SDS011;20721;47.402;8.550;2023-05-07T04:04:42;3.37;;;3.37;;
2710;SDS011;20721;47.402;8.550;2023-05-07T04:05:38;3.78;;;3.78;;
2710;SDS011;20721;47.402;8.550;2023-05-07T04:06:38;4.04;;;4.04;;
2710;SDS011;20721;47.402;8.550;2023-05-07T04:08:42;3.63;;;3.63;;
2710;SDS011;20721;47.402;8.550;2023-05-07T04:09:38;3.51;;;3.51;;
2710;SDS011;20721;47.402;8.550;2023-05-07T04:10:39;3.46;;;3.46;;
2710;SDS011;20721;47.402;8.550;2023-05-07T04:11:38;3.33;;;3.33;;
2710;SDS011;20721;47.402;8.550;2023-05-07T04:12:38;3.52;;;3.52;;
2710;SDS011;20721;47.402;8.550;2023-05-07T04:13:39;3.50;;;3.50;;
2710;SDS011;20721;47.402;8.550;2023-05-07T04:14:38;3.62;;;3.62;;
2710;SDS011;20721;47.402;8.550;2023-05-07T04:15:38;2.88;;;2.88;;
2710;SDS011;20721;47.402;8.550;2023-05-07T04:18:38;3.75;;;3.75;;
2710;SDS011;20721;47.402;8.550;2023-05-07T04:19:38;3.77;;;3.77;;
2710;SDS011;20721;47.402;8.550;2023-05-07T04:20:38;3.22;;;3.22;;
2710;SDS011;20721;47.402;8.550;2023-05-07T04:21:38;3.69;;;3.69;;
2710;SDS011;20721;47.402;8.550;2023-05-07T04:22:38;3.43;;;3.43;;
2710;SDS011;20721;47.402;8.550;2023-05-07T04:23:38;2.94;;;2.94;;
2710;SDS011;20721;47.402;8.550;2023-05-07T04:24:41;4.20;;;4.20;;
2710;SDS011;20721;47.402;8.550;2023-05-07T04:25:39;3.29;;;3.29;;
2710;SDS011;20721;47.402;8.550;2023-05-07T04:26:39;3.38;;;3.38;;
2710;SDS011;20721;47.402;8.550;2023-05-07T04:29:38;3.97;;;3.97;;
2710;SDS011;20721;47.402;8.550;2023-05-07T04:30:38;3.68;;;3.68;;
2710;SDS011;20721;47.402;8.550;2023-05-07T04:31:38;3.03;;;3.03;;
2710;SDS011;20721;47.402;8.550;2023-05-07T04:32:39;3.23;;;3.23;;
2710;SDS011;20721;47.402;8.550;2023-05-07T04:33:38;3.18;;;3.18;;
2710;SDS011;20721;47.402;8.550;2023-05-07T04:34:38;2.91;;;2.91;;
2710;SDS011;20721;47.402;8.550;2023-05-07T04:35:38;3.32;;;3.32;;
2710;SDS011;20721;47.402;8.550;2023-05-07T04:36:40;3.43;;;3.43;;
2710;SDS011;20721;47.402;8.550;2023-05-07T04:37:38;3.22;;;3.22;;
2710;SDS011;20721;47.402;8.550;2023-05-07T04:38:39;3.15;;;3.15;;
2710;SDS011;20721;47.402;8.550;2023-05-07T04:39:42;3.14;;;3.14;;
2710;SDS011;20721;47.402;8.550;2023-05-07T04:40:38;3.44;;;3.44;;
2710;SDS011;20721;47.402;8.550;2023-05-07T04:41:38;3.34;;;3.34;;
2710;SDS011;20721;47.402;8.550;2023-05-07T04:42:38;2.96;;;2.96;;
2710;SDS011;20721;47.402;8.550;2023-05-07T04:43:38;3.89;;;3.89;;
2710;SDS011;20721;47.402;8.550;2023-05-07T04:44:41;3.32;;;3.32;;
2710;SDS011;20721;47.402;8.550;2023-05-07T04:45:42;3.53;;;3.53;;
2710;SDS011;20721;47.402;8.550;2023-05-07T04:46:38;4.20;;;4.20;;
2710;SDS011;20721;47.402;8.550;2023-05-07T04:47:38;3.27;;;3.27;;
2710;SDS011;20721;47.402;8.550;2023-05-07T04:48:39;3.50;;;3.50;;
2710;SDS011;20721;47.402;8.550;2023-05-07T04:49:38;3.98;;;3.98;;
2710;SDS011;20721;47.402;8.550;2023-05-07T04:50:38;3.22;;;3.22;;
2710;SDS011;20721;47.402;8.550;2023-05-07T04:54:38;3.60;;;3.60;;
2710;SDS011;20721;47.402;8.550;2023-05-07T04:55:38;3.46;;;3.46;;
2710;SDS011;20721;47.402;8.550;2023-05-07T04:56:39;3.19;;;3.19;;
2710;SDS011;20721;47.402;8.550;2023-05-07T04:57:38;3.26;;;3.26;;
2710;SDS011;20721;47.402;8.550;2023-05-07T04:58:41;2.84;;;2.84;;
2710;SDS011;20721;47.402;8.550;2023-05-07T04:59:38;3.18;;;3.18;;
2710;SDS011;20721;47.402;8.550;2023-05-07T05:00:38;3.29;;;3.29;;
2710;SDS011;20721;47.402;8.550;2023-05-07T05:01:38;3.91;;;3.91;;
2710;SDS011;20721;47.402;8.550;2023-05-07T05:02:38;3.59;;;3.59;;
2710;SDS011;20721;47.402;8.550;2023-05-07T05:03:40;3.33;;;3.33;;
2710;SDS011;20721;47.402;8.550;2023-05-07T05:04:38;4.10;;;4.10;;
2710;SDS011;20721;47.402;8.550;2023-05-07T05:05:38;3.33;;;3.33;;
2710;SDS011;20721;47.402;8.550;2023-05-07T05:06:39;3.76;;;3.76;;
2710;SDS011;20721;47.402;8.550;2023-05-07T05:07:38;3.87;;;3.87;;
2710;SDS011;20721;47.402;8.550;2023-05-07T05:08:39;4.03;;;4.03;;
2710;SDS011;20721;47.402;8.550;2023-05-07T05:09:38;4.18;;;4.18;;
2710;SDS011;20721;47.402;8.550;2023-05-07T05:12:39;4.41;;;4.41;;
2710;SDS011;20721;47.402;8.550;2023-05-07T05:13:38;4.33;;;4.33;;
2710;SDS011;20721;47.402;8.550;2023-05-07T05:15:38;4.72;;;4.72;;
2710;SDS011;20721;47.402;8.550;2023-05-07T05:16:42;4.65;;;4.65;;
2710;SDS011;20721;47.402;8.550;2023-05-07T05:17:39;4.67;;;4.67;;
2710;SDS011;20721;47.402;8.550;2023-05-07T05:18:38;4.41;;;4.41;;
2710;SDS011;20721;47.402;8.550;2023-05-07T05:19:38;4.48;;;4.48;;
2710;SDS011;20721;47.402;8.550;2023-05-07T05:20:38;4.24;;;4.24;;
2710;SDS011;20721;47.402;8.550;2023-05-07T05:21:38;4.52;;;4.52;;
2710;SDS011;20721;47.402;8.550;2023-05-07T05:23:38;4.54;;;4.54;;
2710;SDS011;20721;47.402;8.550;2023-05-07T05:24:38;4.21;;;4.21;;
2710;SDS011;20721;47.402;8.550;2023-05-07T05:25:38;4.22;;;4.22;;
2710;SDS011;20721;47.402;8.550;2023-05-07T05:26:38;4.79;;;4.79;;
2710;SDS011;20721;47.402;8.550;2023-05-07T05:27:38;4.49;;;4.49;;
2710;SDS011;20721;47.402;8.550;2023-05-07T05:29:38;4.47;;;4.47;;
2710;SDS011;20721;47.402;8.550;2023-05-07T05:30:39;3.94;;;3.94;;
2710;SDS011;20721;47.402;8.550;2023-05-07T05:31:38;4.44;;;4.44;;
2710;SDS011;20721;47.402;8.550;2023-05-07T05:32:38;4.54;;;4.54;;
2710;SDS011;20721;47.402;8.550;2023-05-07T05:33:38;4.26;;;4.26;;
2710;SDS011;20721;47.402;8.550;2023-05-07T05:34:38;4.50;;;4.50;;
2710;SDS011;20721;47.402;8.550;2023-05-07T05:35:39;3.53;;;3.53;;
2710;SDS011;20721;47.402;8.550;2023-05-07T05:36:38;4.23;;;4.23;;
2710;SDS011;20721;47.402;8.550;2023-05-07T05:37:40;4.37;;;4.37;;
2710;SDS011;20721;47.402;8.550;2023-05-07T05:38:39;4.22;;;4.22;;
2710;SDS011;20721;47.402;8.550;2023-05-07T05:39:38;3.70;;;3.70;;
2710;SDS011;20721;47.402;8.550;2023-05-07T05:42:38;4.27;;;4.27;;
2710;SDS011;20721;47.402;8.550;2023-05-07T05:43:38;4.24;;;4.24;;
2710;SDS011;20721;47.402;8.550;2023-05-07T05:44:38;4.38;;;4.38;;
2710;SDS011;20721;47.402;8.550;2023-05-07T05:45:39;4.03;;;4.03;;
2710;SDS011;20721;47.402;8.550;2023-05-07T05:46:39;4.68;;;4.68;;
2710;SDS011;20721;47.402;8.550;2023-05-07T05:47:39;4.80;;;4.80;;
2710;SDS011;20721;47.402;8.550;2023-05-07T05:48:39;4.88;;;4.88;;
2710;SDS011;20721;47.402;8.550;2023-05-07T05:49:38;4.61;;;4.61;;
2710;SDS011;20721;47.402;8.550;2023-05-07T05:52:38;3.90;;;3.90;;
2710;SDS011;20721;47.402;8.550;2023-05-07T05:53:43;5.12;;;5.12;;
2710;SDS011;20721;47.402;8.550;2023-05-07T05:54:38;4.32;;;4.32;;
2710;SDS011;20721;47.402;8.550;2023-05-07T05:55:39;4.60;;;4.60;;
2710;SDS011;20721;47.402;8.550;2023-05-07T05:56:38;5.12;;;5.12;;
2710;SDS011;20721;47.402;8.550;2023-05-07T05:57:39;5.80;;;5.80;;
2710;SDS011;20721;47.402;8.550;2023-05-07T05:58:38;5.66;;;5.66;;
2710;SDS011;20721;47.402;8.550;2023-05-07T05:59:42;5.79;;;5.79;;
2710;SDS011;20721;47.402;8.550;2023-05-07T06:00:39;5.35;;;5.35;;
2710;SDS011;20721;47.402;8.550;2023-05-07T06:01:39;5.98;;;5.98;;
2710;SDS011;20721;47.402;8.550;2023-05-07T06:02:39;6.00;;;6.00;;
2710;SDS011;20721;47.402;8.550;2023-05-07T06:03:39;5.34;;;5.34;;
2710;SDS011;20721;47.402;8.550;2023-05-07T06:04:39;5.85;;;5.85;;
2710;SDS011;20721;47.402;8.550;2023-05-07T06:05:39;5.60;;;5.60;;
2710;SDS011;20721;47.402;8.550;2023-05-07T06:06:38;6.47;;;6.47;;
2710;SDS011;20721;47.402;8.550;2023-05-07T06:07:38;5.97;;;5.97;;
2710;SDS011;20721;47.402;8.550;2023-05-07T06:08:39;6.08;;;6.08;;
2710;SDS011;20721;47.402;8.550;2023-05-07T06:09:39;6.15;;;6.15;;
2710;SDS011;20721;47.402;8.550;2023-05-07T06:10:40;6.14;;;6.14;;
2710;SDS011;20721;47.402;8.550;2023-05-07T06:11:39;6.93;;;6.93;;
2710;SDS011;20721;47.402;8.550;2023-05-07T06:13:39;6.42;;;6.42;;
2710;SDS011;20721;47.402;8.550;2023-05-07T06:14:39;5.91;;;5.91;;
2710;SDS011;20721;47.402;8.550;2023-05-07T06:15:38;5.40;;;5.40;;
2710;SDS011;20721;47.402;8.550;2023-05-07T06:16:39;6.03;;;6.03;;
2710;SDS011;20721;47.402;8.550;2023-05-07T06:17:39;5.39;;;5.39;;
2710;SDS011;20721;47.402;8.550;2023-05-07T06:18:38;5.20;;;5.20;;
2710;SDS011;20721;47.402;8.550;2023-05-07T06:19:39;5.50;;;5.50;;
2710;SDS011;20721;47.402;8.550;2023-05-07T06:20:38;6.06;;;6.06;;
2710;SDS011;20721;47.402;8.550;2023-05-07T06:21:39;5.98;;;5.98;;
2710;SDS011;20721;47.402;8.550;2023-05-07T06:22:39;5.96;;;5.96;;
2710;SDS011;20721;47.402;8.550;2023-05-07T06:23:39;5.83;;;5.83;;
2710;SDS011;20721;47.402;8.550;2023-05-07T06:24:39;5.40;;;5.40;;
2710;SDS011;20721;47.402;8.550;2023-05-07T06:25:39;5.88;;;5.88;;
2710;SDS011;20721;47.402;8.550;2023-05-07T06:26:39;5.47;;;5.47;;
2710;SDS011;20721;47.402;8.550;2023-05-07T06:27:39;5.33;;;5.33;;
2710;SDS011;20721;47.402;8.550;2023-05-07T06:29:41;5.50;;;5.50;;
2710;SDS011;20721;47.402;8.550;2023-05-07T06:30:43;5.31;;;5.31;;
2710;SDS011;20721;47.402;8.550;2023-05-07T06:32:40;5.45;;;5.45;;
2710;SDS011;20721;47.402;8.550;2023-05-07T06:33:39;5.36;;;5.36;;
2710;SDS011;20721;47.402;8.550;2023-05-07T06:36:42;4.74;;;4.74;;
2710;SDS011;20721;47.402;8.550;2023-05-07T06:37:40;4.57;;;4.57;;
2710;SDS011;20721;47.402;8.550;2023-05-07T06:38:39;4.79;;;4.79;;
2710;SDS011;20721;47.402;8.550;2023-05-07T06:39:39;4.51;;;4.51;;
2710;SDS011;20721;47.402;8.550;2023-05-07T06:40:39;4.19;;;4.19;;
2710;SDS011;20721;47.402;8.550;2023-05-07T06:41:38;4.65;;;4.65;;
2710;SDS011;20721;47.402;8.550;2023-05-07T06:42:39;4.55;;;4.55;;
2710;SDS011;20721;47.402;8.550;2023-05-07T06:43:39;4.22;;;4.22;;
2710;SDS011;20721;47.402;8.550;2023-05-07T06:44:39;4.89;;;4.89;;
2710;SDS011;20721;47.402;8.550;2023-05-07T06:45:39;4.93;;;4.93;;
2710;SDS011;20721;47.402;8.550;2023-05-07T06:46:39;4.30;;;4.30;;